createdAt,value
2023-04-18T00:01:19.034Z,78.73
2023-04-18T00:03:45.891Z,79.95
2023-04-18T00:06:13.731Z,79.99
2023-04-18T00:08:40.387Z,79.83
2023-04-18T00:11:06.924Z,79.96
2023-04-18T00:13:33.470Z,79.95
2023-04-18T00:15:59.894Z,79.86
2023-04-18T00:18:27.109Z,80.07
2023-04-18T00:20:54.129Z,80.49
2023-04-18T00:23:21.532Z,80.29
2023-04-18T00:25:48.631Z,80.77
2023-04-18T00:28:15.144Z,80.83
2023-04-18T00:30:41.751Z,80.79
2023-04-18T00:33:08.867Z,80.73
2023-04-18T00:35:35.398Z,80.93
2023-04-18T00:38:01.805Z,80.97
2023-04-18T00:40:28.262Z,80.59
2023-04-18T00:42:55.434Z,80.89
2023-04-18T00:45:22.170Z,81.17
2023-04-18T00:47:48.676Z,81.54
2023-04-18T00:50:15.346Z,81.79
2023-04-18T00:52:42.257Z,81.69
2023-04-18T00:55:09.302Z,81.93
2023-04-18T00:57:36.409Z,81.79
2023-04-18T01:00:10.329Z,81.19
2023-04-18T01:02:38.164Z,81.62
2023-04-18T01:05:06.024Z,82.03
2023-04-18T01:07:35.509Z,81.91
2023-04-18T01:10:02.419Z,82.15
2023-04-18T01:12:28.840Z,81.52
2023-04-18T01:14:55.362Z,81.35
2023-04-18T01:17:23.340Z,81.83
2023-04-18T01:19:50.937Z,81.99
2023-04-18T01:22:17.520Z,81.98
2023-04-18T01:24:44.432Z,81.91
2023-04-18T01:27:13.415Z,81.44
2023-04-18T01:29:39.843Z,81.78
2023-04-18T01:32:06.485Z,81.36
2023-04-18T01:34:32.997Z,81.24
2023-04-18T01:36:59.450Z,82.12
2023-04-18T01:39:25.877Z,81.12
2023-04-18T01:41:52.280Z,81.51
2023-04-18T01:44:18.701Z,81.28
2023-04-18T01:46:45.411Z,81.42
2023-04-18T01:49:11.933Z,81.70
2023-04-18T01:51:42.093Z,81.03
2023-04-18T01:54:08.505Z,80.90
2023-04-18T01:56:34.998Z,81.22
2023-04-18T01:59:01.404Z,81.49
2023-04-18T02:01:27.885Z,81.91
2023-04-18T02:03:54.540Z,81.68
2023-04-18T02:06:21.201Z,82.15
2023-04-18T02:08:47.655Z,81.96
2023-04-18T02:11:14.070Z,81.87
2023-04-18T02:13:40.495Z,81.44
2023-04-18T02:16:12.659Z,81.21
2023-04-18T02:18:39.379Z,81.19
2023-04-18T02:21:05.855Z,80.63
2023-04-18T02:23:32.234Z,80.82
2023-04-18T02:25:58.618Z,81.02
2023-04-18T02:28:25.044Z,80.96
2023-04-18T02:30:51.539Z,80.64
2023-04-18T02:33:17.956Z,80.48
2023-04-18T02:35:44.321Z,80.55
2023-04-18T02:38:10.733Z,80.21
2023-04-18T02:40:37.603Z,80.58
2023-04-18T02:43:04.049Z,80.84
2023-04-18T02:45:30.509Z,80.57
2023-04-18T02:47:57.016Z,80.43
2023-04-18T02:50:24.828Z,80.90
2023-04-18T02:52:51.413Z,81.23
2023-04-18T02:55:17.953Z,81.66
2023-04-18T02:57:44.463Z,81.72
2023-04-18T03:00:11.680Z,81.35
2023-04-18T03:02:38.201Z,81.46
2023-04-18T03:05:05.997Z,81.64
2023-04-18T03:07:32.649Z,81.85
2023-04-18T03:09:59.872Z,81.56
2023-04-18T03:12:26.284Z,81.47
2023-04-18T03:14:52.705Z,81.03
2023-04-18T03:17:19.289Z,81.12
2023-04-18T03:19:46.474Z,81.22
2023-04-18T03:22:14.140Z,81.07
2023-04-18T03:24:40.781Z,80.91
2023-04-18T03:27:07.211Z,80.86
2023-04-18T03:29:33.668Z,80.70
2023-04-18T03:32:00.061Z,80.33
2023-04-18T03:34:27.284Z,80.17
2023-04-18T03:36:54.187Z,79.85
2023-04-18T03:39:20.592Z,79.38
2023-04-18T03:41:46.996Z,79.24
2023-04-18T03:44:13.603Z,78.94
2023-04-18T03:46:40.578Z,79.48
2023-04-18T03:49:07.081Z,79.39
2023-04-18T03:51:42.033Z,79.17
2023-04-18T03:54:08.628Z,79.66
2023-04-18T03:56:36.082Z,79.83
2023-04-18T03:59:02.465Z,79.95
2023-04-18T04:01:28.925Z,80.19
2023-04-18T04:03:55.363Z,80.07
2023-04-18T04:06:22.084Z,80.25
2023-04-18T04:08:48.497Z,79.89
2023-04-18T04:11:14.893Z,79.73
2023-04-18T04:13:41.348Z,79.83
2023-04-18T04:16:08.230Z,79.34
2023-04-18T04:18:34.716Z,79.44
2023-04-18T04:21:01.380Z,79.57
2023-04-18T04:23:27.785Z,79.76
2023-04-18T04:25:54.794Z,79.63
2023-04-18T04:28:26.293Z,79.11
2023-04-18T04:30:53.115Z,78.55
2023-04-18T04:33:20.397Z,79.50
2023-04-18T04:35:47.498Z,79.94
2023-04-18T04:38:17.088Z,79.99
2023-04-18T04:40:43.598Z,79.82
2023-04-18T04:43:15.219Z,79.89
2023-04-18T04:45:42.821Z,79.53
2023-04-18T04:48:12.108Z,79.53
2023-04-18T04:50:41.473Z,79.37
2023-04-18T04:53:08.819Z,79.39
2023-04-18T04:55:35.404Z,79.12
2023-04-18T04:58:01.821Z,79.75
2023-04-18T05:00:28.802Z,79.55
2023-04-18T05:02:57.534Z,79.93
2023-04-18T05:05:24.162Z,80.01
2023-04-18T05:07:50.804Z,80.03
2023-04-18T05:10:17.236Z,79.94
2023-04-18T05:12:43.665Z,79.99
2023-04-18T05:15:10.560Z,79.86
2023-04-18T05:17:37.084Z,79.28
2023-04-18T05:20:04.333Z,78.92
2023-04-18T05:22:30.749Z,78.78
2023-04-18T05:24:57.141Z,78.66
2023-04-18T05:27:23.871Z,78.34
2023-04-18T05:29:50.862Z,78.64
2023-04-18T05:32:17.298Z,78.63
2023-04-18T05:34:43.743Z,78.56
2023-04-18T05:37:10.722Z,78.58
2023-04-18T05:39:37.105Z,77.93
2023-04-18T05:42:03.727Z,77.44
2023-04-18T05:44:30.406Z,77.22
2023-04-18T05:46:56.901Z,76.96
2023-04-18T05:49:23.639Z,76.91
2023-04-18T05:51:50.110Z,76.43
2023-04-18T05:54:16.965Z,76.50
2023-04-18T05:56:43.471Z,76.95
2023-04-18T05:59:09.879Z,76.62
2023-04-18T06:01:36.284Z,76.90
2023-04-18T06:04:02.863Z,77.13
2023-04-18T06:06:29.467Z,76.98
2023-04-18T06:08:55.882Z,76.97
2023-04-18T06:11:22.593Z,76.82
2023-04-18T06:13:49.128Z,76.89
2023-04-18T06:16:15.977Z,76.44
2023-04-18T06:18:42.430Z,76.33
2023-04-18T06:21:08.846Z,76.23
2023-04-18T06:23:35.229Z,75.93
2023-04-18T06:26:01.608Z,76.29
2023-04-18T06:28:28.031Z,75.70
2023-04-18T06:30:54.415Z,75.36
2023-04-18T06:33:21.208Z,74.91
2023-04-18T06:35:47.675Z,75.45
2023-04-18T06:38:14.393Z,74.44
2023-04-18T06:40:40.870Z,72.93
2023-04-18T06:43:07.574Z,72.72
2023-04-18T06:45:34.297Z,72.62
2023-04-18T06:48:03.127Z,70.91
2023-04-18T06:50:29.711Z,69.96
2023-04-18T06:52:56.207Z,69.55
2023-04-18T06:55:22.716Z,68.91
2023-04-18T06:57:49.132Z,68.72
2023-04-18T07:00:16.015Z,67.89
2023-04-18T07:02:42.574Z,67.67
2023-04-18T07:05:09.207Z,66.67
2023-04-18T07:07:35.602Z,65.11
2023-04-18T07:10:02.351Z,64.30
2023-04-18T07:12:28.787Z,63.14
2023-04-18T07:14:55.268Z,61.08
2023-04-18T07:17:21.819Z,59.99
2023-04-18T07:19:48.254Z,58.62
2023-04-18T07:22:14.683Z,57.36
2023-04-18T07:24:41.082Z,55.73
2023-04-18T07:27:09.541Z,55.45
2023-04-18T07:29:36.222Z,52.83
2023-04-18T07:32:02.899Z,50.81
2023-04-18T07:34:29.817Z,48.66
2023-04-18T07:36:59.177Z,48.42
2023-04-18T07:39:25.588Z,47.78
2023-04-18T07:41:52.007Z,48.27
2023-04-18T07:44:18.556Z,50.40
2023-04-18T07:46:45.291Z,52.80
2023-04-18T07:49:12.099Z,54.71
2023-04-18T07:51:38.696Z,56.13
2023-04-18T07:54:05.342Z,56.93
2023-04-18T07:56:31.774Z,58.37
2023-04-18T07:58:58.172Z,59.85
2023-04-18T08:01:27.010Z,61.28
2023-04-18T08:03:54.870Z,61.89
2023-04-18T08:06:21.566Z,62.44
2023-04-18T08:08:47.989Z,61.61
2023-04-18T08:11:14.417Z,61.74
2023-04-18T08:13:40.895Z,62.34
2023-04-18T08:16:07.471Z,62.05
2023-04-18T08:18:33.937Z,62.97
2023-04-18T08:21:00.390Z,62.53
2023-04-18T08:23:26.864Z,62.21
2023-04-18T08:25:53.330Z,61.91
2023-04-18T08:28:19.861Z,62.62
2023-04-18T08:30:49.199Z,62.10
2023-04-18T08:33:16.154Z,61.98
2023-04-18T08:35:43.073Z,61.71
2023-04-18T08:38:09.934Z,62.65
2023-04-18T08:40:37.492Z,61.24
2023-04-18T08:43:09.197Z,60.16
2023-04-18T08:45:36.809Z,59.03
2023-04-18T08:48:03.896Z,59.14
2023-04-18T08:50:30.843Z,58.86
2023-04-18T08:52:59.384Z,57.16
2023-04-18T08:55:25.780Z,57.01
2023-04-18T08:57:55.123Z,55.86
2023-04-18T09:00:22.682Z,56.90
2023-04-18T09:02:49.491Z,54.53
2023-04-18T09:05:22.560Z,55.37
2023-04-18T09:07:50.699Z,56.31
2023-04-18T09:10:30.742Z,56.70
2023-04-18T09:12:58.702Z,57.70
2023-04-18T09:15:27.197Z,58.80
2023-04-18T09:17:56.262Z,59.44
2023-04-18T09:20:43.637Z,59.49
2023-04-18T09:23:14.566Z,60.21
2023-04-18T09:25:43.272Z,60.81
2023-04-18T09:28:29.222Z,61.19
2023-04-18T09:30:58.057Z,61.42
2023-04-18T09:33:28.137Z,61.22
2023-04-18T09:36:27.145Z,61.34
2023-04-18T09:38:56.721Z,61.46
2023-04-18T09:41:23.780Z,60.49
2023-04-18T09:43:50.270Z,60.03
2023-04-18T09:46:21.615Z,59.49
2023-04-18T09:48:48.125Z,59.86
2023-04-18T09:51:16.286Z,60.32
2023-04-18T09:53:50.372Z,60.74
2023-04-18T09:56:27.739Z,60.93
2023-04-18T09:59:08.503Z,61.25
2023-04-18T10:01:35.801Z,60.91
2023-04-18T10:04:04.326Z,60.91
2023-04-18T10:06:34.066Z,60.32
2023-04-18T10:09:03.326Z,60.48
2023-04-18T10:11:33.186Z,61.43
2023-04-18T10:14:04.357Z,61.48
2023-04-18T10:16:34.023Z,61.96
2023-04-18T10:19:41.956Z,61.58
2023-04-18T10:22:08.519Z,61.87
2023-04-18T10:24:53.054Z,61.92
2023-04-18T10:27:48.458Z,61.46
2023-04-18T10:30:18.448Z,61.43
2023-04-18T10:32:47.588Z,61.28
2023-04-18T10:35:13.996Z,61.22
2023-04-18T10:37:59.130Z,59.70
2023-04-18T10:40:33.849Z,59.88
2023-04-18T10:43:00.553Z,60.35
2023-04-18T10:45:35.213Z,60.75
2023-04-18T10:48:29.867Z,61.14
2023-04-18T10:51:14.623Z,61.20
2023-04-18T10:53:49.030Z,61.20
2023-04-18T10:56:15.956Z,62.13
2023-04-18T10:58:48.768Z,62.15
2023-04-18T11:01:19.429Z,62.18
2023-04-18T11:03:46.066Z,62.49
2023-04-18T11:06:12.625Z,62.47
2023-04-18T11:08:39.318Z,62.85
2023-04-18T11:11:09.344Z,62.10
2023-04-18T11:13:36.813Z,62.76
2023-04-18T11:16:03.848Z,62.07
2023-04-18T11:18:40.872Z,61.84
2023-04-18T11:21:07.836Z,62.31
2023-04-18T11:23:34.338Z,61.27
2023-04-18T11:26:00.750Z,61.98
2023-04-18T11:28:27.213Z,61.79
2023-04-18T11:30:58.165Z,61.66
2023-04-18T11:33:28.182Z,61.73
2023-04-18T11:35:57.327Z,61.33
2023-04-18T11:38:28.801Z,60.66
2023-04-18T11:40:55.520Z,60.48
2023-04-18T11:43:24.552Z,61.76
2023-04-18T11:46:00.924Z,61.58
2023-04-18T11:48:40.556Z,62.10
2023-04-18T11:51:08.340Z,62.15
2023-04-18T11:53:35.948Z,61.71
2023-04-18T11:56:03.637Z,61.08
2023-04-18T11:58:34.185Z,61.52
2023-04-18T12:01:22.104Z,61.64
2023-04-18T12:04:02.969Z,60.63
2023-04-18T12:06:48.495Z,60.49
2023-04-18T12:09:18.379Z,60.28
2023-04-18T12:12:03.098Z,59.64
2023-04-18T12:14:30.031Z,60.17
2023-04-18T12:16:56.490Z,60.22
2023-04-18T12:19:28.178Z,60.18
2023-04-18T12:21:56.623Z,60.62
2023-04-18T12:24:24.845Z,61.40
2023-04-18T12:26:51.709Z,62.30
2023-04-18T12:29:18.201Z,62.27
2023-04-18T12:31:44.615Z,62.84
2023-04-18T12:34:11.646Z,63.33
2023-04-18T12:36:38.216Z,63.89
2023-04-18T12:39:04.961Z,64.33
2023-04-18T12:41:31.417Z,64.89
2023-04-18T12:43:57.827Z,65.24
2023-04-18T12:46:24.360Z,65.47
2023-04-18T12:48:50.784Z,64.96
2023-04-18T12:51:17.153Z,65.25
2023-04-18T12:53:43.554Z,65.17
2023-04-18T12:56:10.817Z,65.24
2023-04-18T12:58:37.391Z,66.05
2023-04-18T13:01:04.745Z,65.87
2023-04-18T13:03:31.883Z,66.50
2023-04-18T13:05:58.478Z,66.32
2023-04-18T13:08:24.874Z,66.25
2023-04-18T13:10:51.709Z,65.45
2023-04-18T13:13:18.123Z,65.02
2023-04-18T13:15:44.688Z,65.48
2023-04-18T13:18:11.235Z,66.12
2023-04-18T13:20:37.772Z,66.23
2023-04-18T13:23:04.703Z,66.81
2023-04-18T13:25:31.371Z,66.88
2023-04-18T13:27:58.526Z,66.56
2023-04-18T13:30:25.245Z,66.78
2023-04-18T13:32:51.812Z,66.40
2023-04-18T13:35:18.573Z,66.81
2023-04-18T13:37:46.209Z,67.11
2023-04-18T13:40:13.018Z,66.94
2023-04-18T13:42:39.488Z,66.95
2023-04-18T13:45:06.269Z,66.48
2023-04-18T13:47:32.786Z,67.19
2023-04-18T13:49:59.324Z,66.92
2023-04-18T13:52:25.825Z,66.71
2023-04-18T13:54:52.316Z,66.16
2023-04-18T13:57:18.723Z,66.45
2023-04-18T13:59:45.164Z,66.67
2023-04-18T14:02:11.790Z,66.65
2023-04-18T14:04:38.534Z,67.20
2023-04-18T14:07:06.229Z,67.63
2023-04-18T14:09:32.850Z,67.72
2023-04-18T14:11:59.328Z,68.39
2023-04-18T14:14:25.800Z,68.62
2023-04-18T14:16:53.572Z,68.93
2023-04-18T14:19:20.012Z,68.20
2023-04-18T14:21:47.478Z,67.75
2023-04-18T14:24:14.210Z,67.66
2023-04-18T14:26:40.670Z,67.35
2023-04-18T14:29:07.078Z,67.84
2023-04-18T14:31:33.570Z,67.31
2023-04-18T14:34:00.049Z,67.65
2023-04-18T14:36:27.161Z,67.63
2023-04-18T14:38:54.578Z,68.47
2023-04-18T14:41:21.083Z,68.79
2023-04-18T14:43:47.490Z,68.24
2023-04-18T14:46:16.520Z,68.66
2023-04-18T14:48:49.059Z,69.12
2023-04-18T14:51:16.641Z,69.12
2023-04-18T14:53:44.228Z,69.23
2023-04-18T14:56:10.706Z,69.54
2023-04-18T14:58:37.328Z,69.37
2023-04-18T15:01:04.403Z,69.53
2023-04-18T15:03:31.057Z,70.19
2023-04-18T15:05:57.666Z,70.56
2023-04-18T15:08:24.220Z,70.72
2023-04-18T15:10:50.681Z,70.57
2023-04-18T15:13:17.260Z,70.68
2023-04-18T15:15:51.123Z,71.40
2023-04-18T15:18:17.538Z,71.91
2023-04-18T15:20:44.004Z,72.47
2023-04-18T15:23:13.542Z,72.56
2023-04-18T15:25:41.118Z,72.44
2023-04-18T15:28:07.534Z,72.59
2023-04-18T15:30:33.950Z,73.34
2023-04-18T15:33:01.814Z,73.28
2023-04-18T15:35:28.270Z,72.79
2023-04-18T15:37:54.651Z,72.90
2023-04-18T15:40:21.130Z,73.40
2023-04-18T15:42:49.421Z,73.18
2023-04-18T15:45:15.961Z,73.33
2023-04-18T15:47:42.506Z,73.17
2023-04-18T15:50:09.198Z,72.89
2023-04-18T15:52:36.464Z,72.71
2023-04-18T15:55:05.165Z,72.58
2023-04-18T15:57:32.091Z,73.50
2023-04-18T15:59:59.397Z,73.37
2023-04-18T16:02:26.519Z,73.27
2023-04-18T16:04:53.144Z,72.90
2023-04-18T16:07:19.754Z,73.36
2023-04-18T16:09:48.684Z,73.48
2023-04-18T16:12:15.010Z,73.78
2023-04-18T16:14:41.435Z,73.84
2023-04-18T16:17:07.847Z,73.68
2023-04-18T16:19:38.079Z,73.47
2023-04-18T16:22:05.352Z,73.15
2023-04-18T16:24:32.050Z,73.22
2023-04-18T16:26:58.518Z,73.30
2023-04-18T16:29:41.084Z,73.42
2023-04-18T16:32:08.389Z,74.11
2023-04-18T16:34:34.825Z,73.98
2023-04-18T16:37:01.287Z,73.97
2023-04-18T16:39:29.453Z,73.89
2023-04-18T16:41:56.040Z,73.89
2023-04-18T16:44:22.453Z,73.83
2023-04-18T16:46:48.882Z,74.31
2023-04-18T16:49:15.876Z,74.42
2023-04-18T16:51:42.362Z,74.58
2023-04-18T16:54:08.933Z,75.17
2023-04-18T16:56:35.453Z,74.77
2023-04-18T16:59:01.875Z,74.69
2023-04-18T17:01:28.327Z,74.74
2023-04-18T17:03:54.874Z,74.27
2023-04-18T17:06:24.902Z,74.26
2023-04-18T17:08:53.447Z,74.38
2023-04-18T17:11:20.796Z,74.37
2023-04-18T17:13:47.378Z,74.52
2023-04-18T17:16:13.922Z,74.17
2023-04-18T17:18:41.641Z,73.90
2023-04-18T17:21:12.235Z,73.85
2023-04-18T17:23:42.583Z,73.59
2023-04-18T17:26:09.629Z,73.24
2023-04-18T17:28:36.471Z,73.39
2023-04-18T17:31:03.093Z,74.03
2023-04-18T17:33:29.552Z,74.00
2023-04-18T17:35:56.186Z,73.99
2023-04-18T17:38:23.102Z,74.19
2023-04-18T17:40:58.143Z,74.50
2023-04-18T17:43:24.455Z,74.74
2023-04-18T17:45:51.013Z,74.61
2023-04-18T17:48:17.419Z,74.32
2023-04-18T17:50:43.916Z,74.14
2023-04-18T17:53:12.275Z,73.96
2023-04-18T17:55:40.118Z,73.91
2023-04-18T17:58:06.751Z,73.72
2023-04-18T18:00:33.190Z,73.39
2023-04-18T18:03:01.524Z,73.60
2023-04-18T18:05:28.257Z,73.68
2023-04-18T18:07:56.120Z,73.41
2023-04-18T18:10:23.743Z,73.21
2023-04-18T18:12:50.844Z,73.16
2023-04-18T18:15:18.079Z,73.24
2023-04-18T18:17:44.536Z,73.16
2023-04-18T18:20:11.617Z,73.22
2023-04-18T18:22:38.117Z,73.39
2023-04-18T18:25:05.340Z,73.08
2023-04-18T18:27:31.760Z,73.28
2023-04-18T18:29:58.209Z,73.28
2023-04-18T18:32:24.693Z,73.23
2023-04-18T18:34:51.091Z,73.53
2023-04-18T18:37:17.519Z,73.39
2023-04-18T18:39:44.009Z,73.61
2023-04-18T18:42:10.480Z,73.48
2023-04-18T18:44:36.855Z,73.95
2023-04-18T18:47:03.340Z,74.02
2023-04-18T18:49:29.743Z,73.90
2023-04-18T18:51:56.963Z,74.22
2023-04-18T18:54:24.410Z,74.68
2023-04-18T18:56:51.634Z,74.94
2023-04-18T18:59:18.166Z,75.08
2023-04-18T19:01:44.574Z,74.88
2023-04-18T19:04:11.339Z,75.55
2023-04-18T19:06:38.027Z,75.70
2023-04-18T19:09:05.272Z,75.81
2023-04-18T19:11:31.718Z,75.68
2023-04-18T19:13:58.138Z,75.66
2023-04-18T19:16:24.723Z,75.83
2023-04-18T19:18:51.156Z,75.71
2023-04-18T19:21:17.697Z,76.14
2023-04-18T19:23:44.190Z,76.13
2023-04-18T19:26:10.779Z,76.10
2023-04-18T19:28:37.182Z,76.92
2023-04-18T19:31:03.637Z,76.77
2023-04-18T19:33:30.266Z,76.63
2023-04-18T19:35:56.802Z,76.66
2023-04-18T19:38:23.399Z,76.71
2023-04-18T19:40:49.801Z,76.61
2023-04-18T19:43:16.196Z,76.93
2023-04-18T19:45:42.612Z,76.68
2023-04-18T19:48:09.026Z,76.44
2023-04-18T19:50:35.436Z,77.20
2023-04-18T19:53:01.857Z,76.98
2023-04-18T19:55:28.366Z,77.38
2023-04-18T19:57:56.566Z,77.58
2023-04-18T20:00:23.018Z,77.70
2023-04-18T20:02:49.648Z,77.75
2023-04-18T20:05:18.481Z,77.85
2023-04-18T20:07:45.025Z,77.79
2023-04-18T20:10:11.574Z,77.89
2023-04-18T20:12:37.995Z,78.27
2023-04-18T20:15:05.730Z,78.35
2023-04-18T20:17:34.360Z,78.25
2023-04-18T20:20:01.405Z,78.24
2023-04-18T20:22:28.005Z,78.17
2023-04-18T20:24:57.021Z,78.43
2023-04-18T20:27:23.568Z,78.26
2023-04-18T20:29:50.066Z,78.32
2023-04-18T20:32:16.545Z,78.29
2023-04-18T20:34:43.313Z,78.21
2023-04-18T20:37:09.998Z,78.47
2023-04-18T20:39:39.851Z,78.43
2023-04-18T20:42:06.394Z,78.03
2023-04-18T20:44:35.056Z,77.95
2023-04-18T20:47:01.841Z,77.84
2023-04-18T20:49:29.555Z,77.87
2023-04-18T20:51:56.012Z,77.71
2023-04-18T20:54:22.586Z,77.37
2023-04-18T20:56:48.968Z,77.34
2023-04-18T20:59:15.553Z,76.92
2023-04-18T21:01:42.625Z,76.81
2023-04-18T21:04:09.202Z,76.53
2023-04-18T21:06:36.555Z,76.94
2023-04-18T21:09:03.519Z,76.92
2023-04-18T21:11:29.994Z,76.43
2023-04-18T21:13:56.395Z,76.52
2023-04-18T21:16:24.077Z,76.31
2023-04-18T21:18:50.626Z,76.21
2023-04-18T21:21:17.022Z,76.38
2023-04-18T21:23:44.442Z,76.17
2023-04-18T21:26:12.948Z,76.08
2023-04-18T21:29:11.718Z,76.19
2023-04-18T21:31:38.147Z,76.38
2023-04-18T21:34:05.525Z,76.22
2023-04-18T21:36:32.466Z,75.98
2023-04-18T21:39:01.035Z,75.78
2023-04-18T21:41:27.784Z,76.12
2023-04-18T21:43:54.261Z,75.86
2023-04-18T21:46:20.821Z,75.52
2023-04-18T21:48:48.441Z,75.56
2023-04-18T21:51:16.617Z,75.69
2023-04-18T21:53:43.221Z,75.63
2023-04-18T21:56:10.756Z,75.38
2023-04-18T21:58:37.187Z,74.86
2023-04-18T22:01:03.735Z,75.12
2023-04-18T22:03:31.438Z,74.91
2023-04-18T22:05:58.224Z,74.87
2023-04-18T22:08:28.212Z,73.43
2023-04-18T22:10:55.999Z,73.26
2023-04-18T22:13:22.699Z,73.59
2023-04-18T22:15:49.938Z,73.73
2023-04-18T22:18:16.455Z,73.74
2023-04-18T22:20:43.101Z,72.14
2023-04-18T22:23:09.662Z,71.58
2023-04-18T22:25:36.727Z,71.31
2023-04-18T22:28:03.904Z,70.77
2023-04-18T22:30:31.352Z,70.26
2023-04-18T22:32:59.001Z,70.74
2023-04-18T22:35:26.969Z,70.39
2023-04-18T22:37:53.430Z,70.58
2023-04-18T22:40:19.986Z,70.84
2023-04-18T22:42:46.399Z,70.47
2023-04-18T22:45:13.520Z,69.97
2023-04-18T22:47:40.355Z,70.09
2023-04-18T22:50:07.814Z,70.26
2023-04-18T22:52:34.371Z,69.82
2023-04-18T22:55:02.359Z,70.31
2023-04-18T22:57:28.913Z,69.88
2023-04-18T22:59:55.355Z,70.26
2023-04-18T23:02:21.863Z,69.74
2023-04-18T23:04:49.412Z,70.18
2023-04-18T23:07:16.625Z,70.09
2023-04-18T23:09:43.170Z,70.31
2023-04-18T23:12:09.762Z,69.35
2023-04-18T23:14:36.150Z,69.72
2023-04-18T23:17:02.702Z,69.63
2023-04-18T23:19:29.138Z,69.83
2023-04-18T23:21:55.570Z,69.92
2023-04-18T23:24:22.047Z,69.97
2023-04-18T23:26:48.556Z,70.53
2023-04-18T23:29:14.943Z,70.29
2023-04-18T23:31:41.412Z,70.11
2023-04-18T23:34:07.812Z,69.98
2023-04-18T23:36:34.261Z,69.93
2023-04-18T23:39:00.679Z,69.94
2023-04-18T23:41:27.211Z,69.58
2023-04-18T23:43:53.750Z,68.95
2023-04-18T23:46:20.184Z,69.05
2023-04-18T23:48:46.669Z,69.39
2023-04-18T23:51:13.251Z,69.49
2023-04-18T23:53:39.626Z,69.59
2023-04-18T23:56:06.491Z,69.26
2023-04-18T23:58:32.920Z,69.42
